sensor_id;sensor_type;location;lat;lon;timestamp;P1;durP1;ratioP1;P2;durP2;ratioP2
57233;SDS011;43090;52.604;13.318;2023-09-19T00:01:40;4.22;;;1.92;;
57233;SDS011;43090;52.604;13.318;2023-09-19T00:04:07;5.40;;;1.88;;
57233;SDS011;43090;52.604;13.318;2023-09-19T00:06:36;6.95;;;2.17;;
57233;SDS011;43090;52.604;13.318;2023-09-19T00:09:03;8.48;;;1.85;;
57233;SDS011;43090;52.604;13.318;2023-09-19T00:11:30;6.10;;;1.83;;
57233;SDS011;43090;52.604;13.318;2023-09-19T00:16:25;4.03;;;1.92;;
57233;SDS011;43090;52.604;13.318;2023-09-19T00:18:53;3.83;;;2.08;;
57233;SDS011;43090;52.604;13.318;2023-09-19T00:23:46;6.53;;;2.40;;
57233;SDS011;43090;52.604;13.318;2023-09-19T00:26:13;4.75;;;2.10;;
57233;SDS011;43090;52.604;13.318;2023-09-19T00:28:40;7.85;;;2.20;;
57233;SDS011;43090;52.604;13.318;2023-09-19T00:33:37;4.22;;;1.98;;
57233;SDS011;43090;52.604;13.318;2023-09-19T00:36:04;12.48;;;2.30;;
57233;SDS011;43090;52.604;13.318;2023-09-19T00:38:32;5.40;;;1.80;;
57233;SDS011;43090;52.604;13.318;2023-09-19T00:43:26;8.60;;;2.17;;
57233;SDS011;43090;52.604;13.318;2023-09-19T00:45:55;6.35;;;2.03;;
57233;SDS011;43090;52.604;13.318;2023-09-19T00:48:22;5.03;;;1.98;;
57233;SDS011;43090;52.604;13.318;2023-09-19T00:50:51;5.38;;;2.33;;
57233;SDS011;43090;52.604;13.318;2023-09-19T00:53:23;5.32;;;2.13;;
57233;SDS011;43090;52.604;13.318;2023-09-19T00:55:53;5.88;;;2.17;;
57233;SDS011;43090;52.604;13.318;2023-09-19T00:58:22;11.52;;;2.47;;
57233;SDS011;43090;52.604;13.318;2023-09-19T01:00:52;7.65;;;2.60;;
57233;SDS011;43090;52.604;13.318;2023-09-19T01:03:19;5.63;;;2.22;;
57233;SDS011;43090;52.604;13.318;2023-09-19T01:05:49;6.93;;;2.38;;
57233;SDS011;43090;52.604;13.318;2023-09-19T01:08:16;4.95;;;2.00;;
57233;SDS011;43090;52.604;13.318;2023-09-19T01:10:52;6.50;;;2.05;;
57233;SDS011;43090;52.604;13.318;2023-09-19T01:13:34;7.93;;;2.58;;
57233;SDS011;43090;52.604;13.318;2023-09-19T01:19:22;7.18;;;2.05;;
57233;SDS011;43090;52.604;13.318;2023-09-19T01:22:07;8.52;;;2.33;;
57233;SDS011;43090;52.604;13.318;2023-09-19T01:28:12;4.95;;;1.95;;
57233;SDS011;43090;52.604;13.318;2023-09-19T01:30:48;3.92;;;2.08;;
57233;SDS011;43090;52.604;13.318;2023-09-19T01:33:24;6.32;;;1.90;;
57233;SDS011;43090;52.604;13.318;2023-09-19T01:35:52;4.75;;;1.77;;
57233;SDS011;43090;52.604;13.318;2023-09-19T01:38:19;4.28;;;1.88;;
57233;SDS011;43090;52.604;13.318;2023-09-19T01:40:57;7.80;;;2.15;;
57233;SDS011;43090;52.604;13.318;2023-09-19T01:43:32;4.82;;;2.05;;
57233;SDS011;43090;52.604;13.318;2023-09-19T01:51:26;5.40;;;1.83;;
57233;SDS011;43090;52.604;13.318;2023-09-19T01:54:01;3.70;;;1.70;;
57233;SDS011;43090;52.604;13.318;2023-09-19T01:56:40;4.03;;;1.85;;
57233;SDS011;43090;52.604;13.318;2023-09-19T01:59:25;4.57;;;2.45;;
57233;SDS011;43090;52.604;13.318;2023-09-19T02:01:59;6.38;;;1.85;;
57233;SDS011;43090;52.604;13.318;2023-09-19T02:04:49;5.57;;;2.03;;
57233;SDS011;43090;52.604;13.318;2023-09-19T02:07:20;5.55;;;2.88;;
57233;SDS011;43090;52.604;13.318;2023-09-19T02:09:55;5.95;;;2.30;;
57233;SDS011;43090;52.604;13.318;2023-09-19T02:12:22;7.72;;;2.15;;
57233;SDS011;43090;52.604;13.318;2023-09-19T02:14:52;5.15;;;2.15;;
57233;SDS011;43090;52.604;13.318;2023-09-19T02:19:46;7.80;;;1.70;;
57233;SDS011;43090;52.604;13.318;2023-09-19T02:22:18;4.78;;;1.67;;
57233;SDS011;43090;52.604;13.318;2023-09-19T02:24:54;3.90;;;1.85;;
57233;SDS011;43090;52.604;13.318;2023-09-19T02:27:29;4.03;;;1.60;;
57233;SDS011;43090;52.604;13.318;2023-09-19T02:30:05;4.65;;;1.45;;
57233;SDS011;43090;52.604;13.318;2023-09-19T02:46:44;5.55;;;2.30;;
57233;SDS011;43090;52.604;13.318;2023-09-19T02:49:13;5.07;;;2.20;;
57233;SDS011;43090;52.604;13.318;2023-09-19T02:51:40;5.35;;;2.60;;
57233;SDS011;43090;52.604;13.318;2023-09-19T02:56:34;3.58;;;1.67;;
57233;SDS011;43090;52.604;13.318;2023-09-19T02:59:01;6.85;;;2.13;;
57233;SDS011;43090;52.604;13.318;2023-09-19T03:01:30;4.05;;;1.95;;
57233;SDS011;43090;52.604;13.318;2023-09-19T03:03:58;6.85;;;2.20;;
57233;SDS011;43090;52.604;13.318;2023-09-19T03:06:25;9.05;;;1.77;;
57233;SDS011;43090;52.604;13.318;2023-09-19T03:09:00;5.65;;;2.03;;
57233;SDS011;43090;52.604;13.318;2023-09-19T03:11:46;6.93;;;1.90;;
57233;SDS011;43090;52.604;13.318;2023-09-19T03:14:13;3.45;;;1.88;;
57233;SDS011;43090;52.604;13.318;2023-09-19T03:16:41;4.75;;;1.90;;
57233;SDS011;43090;52.604;13.318;2023-09-19T03:19:09;4.95;;;1.65;;
57233;SDS011;43090;52.604;13.318;2023-09-19T03:21:36;7.22;;;1.98;;
57233;SDS011;43090;52.604;13.318;2023-09-19T03:24:04;5.25;;;1.95;;
57233;SDS011;43090;52.604;13.318;2023-09-19T03:26:32;4.60;;;2.08;;
57233;SDS011;43090;52.604;13.318;2023-09-19T03:28:59;2.70;;;1.88;;
57233;SDS011;43090;52.604;13.318;2023-09-19T03:31:26;4.50;;;1.70;;
57233;SDS011;43090;52.604;13.318;2023-09-19T03:33:53;5.13;;;2.03;;
57233;SDS011;43090;52.604;13.318;2023-09-19T03:36:19;4.18;;;1.80;;
57233;SDS011;43090;52.604;13.318;2023-09-19T03:38:46;7.55;;;1.38;;
57233;SDS011;43090;52.604;13.318;2023-09-19T03:41:12;2.55;;;1.55;;
57233;SDS011;43090;52.604;13.318;2023-09-19T03:43:40;2.83;;;1.45;;
57233;SDS011;43090;52.604;13.318;2023-09-19T03:46:08;3.97;;;1.42;;
57233;SDS011;43090;52.604;13.318;2023-09-19T03:48:34;7.05;;;1.42;;
57233;SDS011;43090;52.604;13.318;2023-09-19T03:51:01;7.68;;;1.13;;
57233;SDS011;43090;52.604;13.318;2023-09-19T03:53:28;5.75;;;1.70;;
57233;SDS011;43090;52.604;13.318;2023-09-19T03:55:55;6.78;;;1.25;;
57233;SDS011;43090;52.604;13.318;2023-09-19T03:58:21;3.28;;;1.30;;
57233;SDS011;43090;52.604;13.318;2023-09-19T04:00:48;2.50;;;1.30;;
57233;SDS011;43090;52.604;13.318;2023-09-19T04:03:16;3.47;;;1.45;;
57233;SDS011;43090;52.604;13.318;2023-09-19T04:05:47;2.55;;;1.30;;
57233;SDS011;43090;52.604;13.318;2023-09-19T04:08:14;3.00;;;1.30;;
57233;SDS011;43090;52.604;13.318;2023-09-19T04:13:08;5.20;;;1.43;;
57233;SDS011;43090;52.604;13.318;2023-09-19T04:18:02;3.25;;;1.30;;
57233;SDS011;43090;52.604;13.318;2023-09-19T04:20:29;8.50;;;1.73;;
57233;SDS011;43090;52.604;13.318;2023-09-19T04:22:56;6.38;;;1.17;;
57233;SDS011;43090;52.604;13.318;2023-09-19T04:27:50;4.35;;;1.63;;
57233;SDS011;43090;52.604;13.318;2023-09-19T04:30:16;3.55;;;1.35;;
57233;SDS011;43090;52.604;13.318;2023-09-19T04:32:43;6.10;;;1.70;;
57233;SDS011;43090;52.604;13.318;2023-09-19T04:37:41;1.75;;;1.13;;
57233;SDS011;43090;52.604;13.318;2023-09-19T04:40:08;1.30;;;1.00;;
57233;SDS011;43090;52.604;13.318;2023-09-19T04:42:42;5.50;;;1.40;;
57233;SDS011;43090;52.604;13.318;2023-09-19T04:45:10;2.97;;;1.63;;
57233;SDS011;43090;52.604;13.318;2023-09-19T04:47:37;3.75;;;1.33;;
57233;SDS011;43090;52.604;13.318;2023-09-19T04:50:06;6.00;;;2.38;;
57233;SDS011;43090;52.604;13.318;2023-09-19T04:52:42;5.00;;;1.58;;
57233;SDS011;43090;52.604;13.318;2023-09-19T04:55:19;3.40;;;1.65;;
57233;SDS011;43090;52.604;13.318;2023-09-19T04:58:00;3.13;;;1.83;;
57233;SDS011;43090;52.604;13.318;2023-09-19T05:00:26;5.22;;;2.13;;
57233;SDS011;43090;52.604;13.318;2023-09-19T05:03:00;4.35;;;1.80;;
57233;SDS011;43090;52.604;13.318;2023-09-19T05:05:53;5.95;;;1.60;;
57233;SDS011;43090;52.604;13.318;2023-09-19T05:11:03;5.57;;;1.40;;
57233;SDS011;43090;52.604;13.318;2023-09-19T05:13:30;3.17;;;1.40;;
57233;SDS011;43090;52.604;13.318;2023-09-19T05:15:59;5.22;;;1.63;;
57233;SDS011;43090;52.604;13.318;2023-09-19T05:22:30;6.15;;;1.50;;
57233;SDS011;43090;52.604;13.318;2023-09-19T05:24:58;1.83;;;1.30;;
57233;SDS011;43090;52.604;13.318;2023-09-19T05:27:24;2.78;;;1.30;;
57233;SDS011;43090;52.604;13.318;2023-09-19T05:32:19;4.53;;;1.17;;
57233;SDS011;43090;52.604;13.318;2023-09-19T05:34:46;2.65;;;1.58;;
57233;SDS011;43090;52.604;13.318;2023-09-19T05:37:31;4.28;;;1.67;;
57233;SDS011;43090;52.604;13.318;2023-09-19T05:42:25;6.05;;;1.73;;
57233;SDS011;43090;52.604;13.318;2023-09-19T05:44:52;2.95;;;1.70;;
57233;SDS011;43090;52.604;13.318;2023-09-19T05:47:18;2.63;;;1.38;;
57233;SDS011;43090;52.604;13.318;2023-09-19T05:49:45;2.25;;;1.38;;
57233;SDS011;43090;52.604;13.318;2023-09-19T05:54:38;6.55;;;1.63;;
57233;SDS011;43090;52.604;13.318;2023-09-19T05:57:05;10.27;;;1.70;;
57233;SDS011;43090;52.604;13.318;2023-09-19T05:59:32;7.80;;;1.90;;
57233;SDS011;43090;52.604;13.318;2023-09-19T06:02:01;5.78;;;1.73;;
57233;SDS011;43090;52.604;13.318;2023-09-19T06:04:32;7.30;;;1.45;;
57233;SDS011;43090;52.604;13.318;2023-09-19T06:06:59;5.90;;;1.80;;
57233;SDS011;43090;52.604;13.318;2023-09-19T06:09:29;7.97;;;1.90;;
57233;SDS011;43090;52.604;13.318;2023-09-19T06:11:58;6.32;;;2.08;;
57233;SDS011;43090;52.604;13.318;2023-09-19T06:14:29;6.93;;;1.98;;
57233;SDS011;43090;52.604;13.318;2023-09-19T06:16:57;4.43;;;1.63;;
57233;SDS011;43090;52.604;13.318;2023-09-19T06:19:24;5.97;;;1.58;;
57233;SDS011;43090;52.604;13.318;2023-09-19T06:21:52;6.82;;;2.03;;
57233;SDS011;43090;52.604;13.318;2023-09-19T06:24:42;5.35;;;1.75;;
57233;SDS011;43090;52.604;13.318;2023-09-19T06:41:53;3.85;;;1.38;;
57233;SDS011;43090;52.604;13.318;2023-09-19T06:44:21;5.70;;;2.00;;
57233;SDS011;43090;52.604;13.318;2023-09-19T06:46:50;5.28;;;1.70;;
57233;SDS011;43090;52.604;13.318;2023-09-19T06:49:18;6.28;;;1.92;;
57233;SDS011;43090;52.604;13.318;2023-09-19T06:51:53;3.75;;;1.73;;
57233;SDS011;43090;52.604;13.318;2023-09-19T06:54:21;6.30;;;1.65;;
57233;SDS011;43090;52.604;13.318;2023-09-19T06:59:24;4.22;;;1.90;;
57233;SDS011;43090;52.604;13.318;2023-09-19T07:01:59;7.65;;;1.92;;
57233;SDS011;43090;52.604;13.318;2023-09-19T07:04:29;7.93;;;2.05;;
57233;SDS011;43090;52.604;13.318;2023-09-19T07:06:59;7.18;;;1.90;;
57233;SDS011;43090;52.604;13.318;2023-09-19T07:09:26;4.18;;;1.67;;
57233;SDS011;43090;52.604;13.318;2023-09-19T07:11:54;3.33;;;1.80;;
57233;SDS011;43090;52.604;13.318;2023-09-19T07:14:27;3.45;;;1.70;;
57233;SDS011;43090;52.604;13.318;2023-09-19T07:17:10;4.15;;;1.70;;
57233;SDS011;43090;52.604;13.318;2023-09-19T07:19:45;9.25;;;2.20;;
57233;SDS011;43090;52.604;13.318;2023-09-19T07:22:23;4.70;;;1.92;;
57233;SDS011;43090;52.604;13.318;2023-09-19T07:24:53;4.68;;;1.67;;
57233;SDS011;43090;52.604;13.318;2023-09-19T07:27:21;6.68;;;1.75;;
57233;SDS011;43090;52.604;13.318;2023-09-19T07:29:50;6.72;;;2.00;;
57233;SDS011;43090;52.604;13.318;2023-09-19T07:32:20;4.80;;;1.63;;
57233;SDS011;43090;52.604;13.318;2023-09-19T07:37:14;7.97;;;2.13;;
57233;SDS011;43090;52.604;13.318;2023-09-19T07:39:42;6.82;;;2.33;;
57233;SDS011;43090;52.604;13.318;2023-09-19T07:42:15;8.05;;;2.30;;
57233;SDS011;43090;52.604;13.318;2023-09-19T07:44:45;4.55;;;1.80;;
57233;SDS011;43090;52.604;13.318;2023-09-19T07:47:14;4.30;;;1.85;;
57233;SDS011;43090;52.604;13.318;2023-09-19T07:49:46;5.18;;;2.15;;
57233;SDS011;43090;52.604;13.318;2023-09-19T07:52:14;7.35;;;2.13;;
57233;SDS011;43090;52.604;13.318;2023-09-19T07:54:42;5.68;;;2.13;;
57233;SDS011;43090;52.604;13.318;2023-09-19T07:57:10;7.07;;;2.10;;
57233;SDS011;43090;52.604;13.318;2023-09-19T07:59:37;8.15;;;2.88;;
57233;SDS011;43090;52.604;13.318;2023-09-19T08:02:05;6.60;;;2.40;;
57233;SDS011;43090;52.604;13.318;2023-09-19T08:04:40;10.60;;;2.38;;
57233;SDS011;43090;52.604;13.318;2023-09-19T08:07:15;7.25;;;2.78;;
57233;SDS011;43090;52.604;13.318;2023-09-19T08:09:48;4.22;;;2.05;;
57233;SDS011;43090;52.604;13.318;2023-09-19T08:12:22;7.60;;;2.50;;
57233;SDS011;43090;52.604;13.318;2023-09-19T08:15:00;8.15;;;2.30;;
57233;SDS011;43090;52.604;13.318;2023-09-19T08:18:00;7.82;;;2.35;;
57233;SDS011;43090;52.604;13.318;2023-09-19T08:20:28;7.45;;;2.30;;
57233;SDS011;43090;52.604;13.318;2023-09-19T08:22:55;7.53;;;2.60;;
57233;SDS011;43090;52.604;13.318;2023-09-19T08:25:23;6.38;;;2.60;;
57233;SDS011;43090;52.604;13.318;2023-09-19T08:27:51;12.77;;;2.50;;
57233;SDS011;43090;52.604;13.318;2023-09-19T08:30:19;6.32;;;2.50;;
57233;SDS011;43090;52.604;13.318;2023-09-19T08:32:51;9.98;;;3.00;;
57233;SDS011;43090;52.604;13.318;2023-09-19T08:35:28;8.10;;;2.28;;
57233;SDS011;43090;52.604;13.318;2023-09-19T08:38:10;9.00;;;2.22;;
57233;SDS011;43090;52.604;13.318;2023-09-19T08:40:44;5.90;;;2.15;;
57233;SDS011;43090;52.604;13.318;2023-09-19T08:43:31;9.13;;;2.40;;
57233;SDS011;43090;52.604;13.318;2023-09-19T08:56:44;11.38;;;3.28;;
57233;SDS011;43090;52.604;13.318;2023-09-19T08:59:30;7.68;;;2.55;;
57233;SDS011;43090;52.604;13.318;2023-09-19T09:02:12;12.60;;;2.55;;
57233;SDS011;43090;52.604;13.318;2023-09-19T09:05:17;4.90;;;1.77;;
57233;SDS011;43090;52.604;13.318;2023-09-19T09:07:55;10.93;;;2.55;;
57233;SDS011;43090;52.604;13.318;2023-09-19T09:10:30;6.80;;;2.50;;
57233;SDS011;43090;52.604;13.318;2023-09-19T09:13:06;4.80;;;2.10;;
57233;SDS011;43090;52.604;13.318;2023-09-19T09:15:42;12.15;;;2.70;;
57233;SDS011;43090;52.604;13.318;2023-09-19T09:21:29;7.32;;;2.22;;
57233;SDS011;43090;52.604;13.318;2023-09-19T09:23:56;7.72;;;2.30;;
57233;SDS011;43090;52.604;13.318;2023-09-19T09:29:58;12.00;;;2.50;;
57233;SDS011;43090;52.604;13.318;2023-09-19T09:32:31;7.38;;;2.75;;
57233;SDS011;43090;52.604;13.318;2023-09-19T09:35:11;7.13;;;2.08;;
57233;SDS011;43090;52.604;13.318;2023-09-19T09:38:02;4.50;;;2.10;;
57233;SDS011;43090;52.604;13.318;2023-09-19T09:40:52;5.60;;;2.25;;
57233;SDS011;43090;52.604;13.318;2023-09-19T09:43:34;10.23;;;2.40;;
57233;SDS011;43090;52.604;13.318;2023-09-19T09:46:12;9.73;;;2.13;;
57233;SDS011;43090;52.604;13.318;2023-09-19T09:48:56;9.85;;;2.22;;
57233;SDS011;43090;52.604;13.318;2023-09-19T09:52:02;5.03;;;2.25;;
57233;SDS011;43090;52.604;13.318;2023-09-19T09:55:04;10.45;;;3.15;;
57233;SDS011;43090;52.604;13.318;2023-09-19T09:57:44;8.35;;;2.83;;
57233;SDS011;43090;52.604;13.318;2023-09-19T10:02:37;5.32;;;2.58;;
57233;SDS011;43090;52.604;13.318;2023-09-19T10:05:13;10.13;;;2.58;;
57233;SDS011;43090;52.604;13.318;2023-09-19T10:07:50;12.35;;;2.70;;
57233;SDS011;43090;52.604;13.318;2023-09-19T10:10:36;6.68;;;2.92;;
57233;SDS011;43090;52.604;13.318;2023-09-19T10:13:21;8.23;;;2.65;;
57233;SDS011;43090;52.604;13.318;2023-09-19T10:15:57;10.18;;;2.35;;
57233;SDS011;43090;52.604;13.318;2023-09-19T10:18:39;10.07;;;2.60;;
57233;SDS011;43090;52.604;13.318;2023-09-19T10:21:19;6.85;;;2.58;;
57233;SDS011;43090;52.604;13.318;2023-09-19T10:23:51;15.88;;;3.25;;
57233;SDS011;43090;52.604;13.318;2023-09-19T10:26:32;17.23;;;3.80;;
57233;SDS011;43090;52.604;13.318;2023-09-19T10:29:06;7.63;;;2.60;;
57233;SDS011;43090;52.604;13.318;2023-09-19T10:31:35;9.93;;;2.40;;
57233;SDS011;43090;52.604;13.318;2023-09-19T10:34:14;12.00;;;2.72;;
57233;SDS011;43090;52.604;13.318;2023-09-19T10:36:44;9.07;;;2.83;;
57233;SDS011;43090;52.604;13.318;2023-09-19T10:39:15;9.20;;;2.40;;
57233;SDS011;43090;52.604;13.318;2023-09-19T10:41:53;11.52;;;2.70;;
57233;SDS011;43090;52.604;13.318;2023-09-19T10:44:28;7.45;;;2.95;;
57233;SDS011;43090;52.604;13.318;2023-09-19T10:46:58;8.68;;;3.35;;
57233;SDS011;43090;52.604;13.318;2023-09-19T10:49:25;10.85;;;2.70;;
57233;SDS011;43090;52.604;13.318;2023-09-19T10:52:05;8.63;;;3.25;;
57233;SDS011;43090;52.604;13.318;2023-09-19T10:57:24;10.40;;;3.20;;
57233;SDS011;43090;52.604;13.318;2023-09-19T11:00:25;8.27;;;2.33;;
57233;SDS011;43090;52.604;13.318;2023-09-19T11:06:09;13.80;;;3.33;;
57233;SDS011;43090;52.604;13.318;2023-09-19T11:14:13;14.43;;;3.35;;
57233;SDS011;43090;52.604;13.318;2023-09-19T11:23:18;10.73;;;2.63;;
57233;SDS011;43090;52.604;13.318;2023-09-19T11:25:50;11.20;;;2.13;;
57233;SDS011;43090;52.604;13.318;2023-09-19T11:28:55;11.00;;;3.05;;
57233;SDS011;43090;52.604;13.318;2023-09-19T11:31:53;12.63;;;2.42;;
57233;SDS011;43090;52.604;13.318;2023-09-19T11:34:39;9.98;;;2.85;;
57233;SDS011;43090;52.604;13.318;2023-09-19T11:46:53;9.27;;;2.13;;
57233;SDS011;43090;52.604;13.318;2023-09-19T11:49:40;16.63;;;2.97;;
57233;SDS011;43090;52.604;13.318;2023-09-19T11:52:21;9.85;;;2.38;;
57233;SDS011;43090;52.604;13.318;2023-09-19T11:54:57;11.13;;;2.35;;
57233;SDS011;43090;52.604;13.318;2023-09-19T12:07:52;10.10;;;2.63;;
57233;SDS011;43090;52.604;13.318;2023-09-19T12:10:20;5.93;;;1.85;;
57233;SDS011;43090;52.604;13.318;2023-09-19T12:12:56;12.13;;;1.77;;
57233;SDS011;43090;52.604;13.318;2023-09-19T12:19:19;7.72;;;2.03;;
57233;SDS011;43090;52.604;13.318;2023-09-19T12:24:41;12.10;;;2.25;;
57233;SDS011;43090;52.604;13.318;2023-09-19T12:30:18;8.40;;;2.13;;
57233;SDS011;43090;52.604;13.318;2023-09-19T12:33:00;18.08;;;2.38;;
57233;SDS011;43090;52.604;13.318;2023-09-19T12:36:34;8.20;;;1.95;;
57233;SDS011;43090;52.604;13.318;2023-09-19T12:39:04;8.70;;;1.65;;
57233;SDS011;43090;52.604;13.318;2023-09-19T12:42:02;12.40;;;1.75;;
57233;SDS011;43090;52.604;13.318;2023-09-19T12:44:46;9.50;;;2.25;;
57233;SDS011;43090;52.604;13.318;2023-09-19T12:55:33;5.75;;;1.20;;
57233;SDS011;43090;52.604;13.318;2023-09-19T13:13:23;6.97;;;1.60;;
57233;SDS011;43090;52.604;13.318;2023-09-19T13:18:26;8.02;;;1.23;;
57233;SDS011;43090;52.604;13.318;2023-09-19T13:21:09;7.03;;;1.80;;
57233;SDS011;43090;52.604;13.318;2023-09-19T13:23:41;8.77;;;2.15;;
57233;SDS011;43090;52.604;13.318;2023-09-19T13:26:10;9.70;;;2.30;;
57233;SDS011;43090;52.604;13.318;2023-09-19T13:28:40;7.80;;;2.10;;
57233;SDS011;43090;52.604;13.318;2023-09-19T13:31:28;10.00;;;1.75;;
57233;SDS011;43090;52.604;13.318;2023-09-19T13:34:17;8.02;;;2.22;;
57233;SDS011;43090;52.604;13.318;2023-09-19T13:36:51;5.55;;;1.45;;
57233;SDS011;43090;52.604;13.318;2023-09-19T13:50:22;6.82;;;1.45;;
57233;SDS011;43090;52.604;13.318;2023-09-19T13:52:55;6.95;;;1.95;;
57233;SDS011;43090;52.604;13.318;2023-09-19T13:55:22;3.70;;;1.48;;
57233;SDS011;43090;52.604;13.318;2023-09-19T13:57:56;8.55;;;2.13;;
57233;SDS011;43090;52.604;13.318;2023-09-19T14:03:43;4.30;;;2.28;;
57233;SDS011;43090;52.604;13.318;2023-09-19T14:06:16;8.18;;;1.83;;
57233;SDS011;43090;52.604;13.318;2023-09-19T14:08:45;6.30;;;1.48;;
57233;SDS011;43090;52.604;13.318;2023-09-19T14:11:29;8.35;;;1.83;;
57233;SDS011;43090;52.604;13.318;2023-09-19T14:13:55;6.88;;;1.95;;
57233;SDS011;43090;52.604;13.318;2023-09-19T14:16:23;9.45;;;1.88;;
57233;SDS011;43090;52.604;13.318;2023-09-19T14:18:51;5.18;;;1.67;;
57233;SDS011;43090;52.604;13.318;2023-09-19T14:24:26;5.35;;;2.20;;
57233;SDS011;43090;52.604;13.318;2023-09-19T14:26:53;5.78;;;1.42;;
57233;SDS011;43090;52.604;13.318;2023-09-19T14:32:47;4.80;;;1.52;;
57233;SDS011;43090;52.604;13.318;2023-09-19T14:37:41;5.22;;;1.50;;
57233;SDS011;43090;52.604;13.318;2023-09-19T14:50:24;8.85;;;1.65;;
57233;SDS011;43090;52.604;13.318;2023-09-19T15:00:28;6.55;;;1.92;;
57233;SDS011;43090;52.604;13.318;2023-09-19T15:03:20;6.75;;;1.83;;
57233;SDS011;43090;52.604;13.318;2023-09-19T15:06:09;9.02;;;1.70;;
57233;SDS011;43090;52.604;13.318;2023-09-19T15:08:41;6.10;;;1.83;;
57233;SDS011;43090;52.604;13.318;2023-09-19T15:11:16;13.13;;;1.77;;
57233;SDS011;43090;52.604;13.318;2023-09-19T15:14:05;6.90;;;1.95;;
57233;SDS011;43090;52.604;13.318;2023-09-19T15:16:42;5.70;;;1.73;;
57233;SDS011;43090;52.604;13.318;2023-09-19T15:19:10;11.68;;;2.55;;
57233;SDS011;43090;52.604;13.318;2023-09-19T15:24:07;8.60;;;2.10;;
57233;SDS011;43090;52.604;13.318;2023-09-19T15:29:12;5.88;;;1.90;;
57233;SDS011;43090;52.604;13.318;2023-09-19T15:31:40;13.60;;;2.53;;
57233;SDS011;43090;52.604;13.318;2023-09-19T15:36:34;7.00;;;1.80;;
57233;SDS011;43090;52.604;13.318;2023-09-19T15:39:18;8.45;;;1.85;;
57233;SDS011;43090;52.604;13.318;2023-09-19T15:41:52;8.43;;;1.60;;
57233;SDS011;43090;52.604;13.318;2023-09-19T15:44:43;10.70;;;2.38;;
57233;SDS011;43090;52.604;13.318;2023-09-19T15:47:19;14.95;;;2.00;;
57233;SDS011;43090;52.604;13.318;2023-09-19T15:49:58;8.02;;;2.28;;
57233;SDS011;43090;52.604;13.318;2023-09-19T15:52:39;7.63;;;1.90;;
57233;SDS011;43090;52.604;13.318;2023-09-19T15:55:09;5.75;;;1.80;;
57233;SDS011;43090;52.604;13.318;2023-09-19T15:57:41;14.43;;;2.22;;
57233;SDS011;43090;52.604;13.318;2023-09-19T16:00:08;4.70;;;2.08;;
57233;SDS011;43090;52.604;13.318;2023-09-19T16:02:36;9.95;;;1.80;;
